Timeline UpdatesTrip UpdatesNews PostsPvt PostsTravel TipsAdmin PostsConv PostsFollowed PostsChat RequestsBlog PostsPNR Posts

Disclaimer
Search
 
 
Wed Oct 1, 2014 23:51:35 ISTHomeTrainsΣChainsAtlasPNRForumGalleryNewsFAQTripsMembersLoginFeedback
No Recent News for this Train
Other Trains in the News **new
Latest...
Train leaving Muzaffarpur on 20/9/14 is diverted via Dankuni and will stop at Dakshineswar on 21/9/14 #1218323.
Thu Sep 18, 2014 (11:11PM)
⇐ Return Journey: Train# 53131

53132/Muzaffarpur Sealdah Passenger (UnReserved)

Time-Table HAS CHANGED.
Sep 18 (11:11PM)
Change Departure Station:
Change Arrival Station:
Post a Train Travel TipPost a Train Travel Tip **new
Post a Comment/Question/Picture/VideoPost a Comment/Question/Picture/Video
Pantry/Catering
✕ NO Pantry Car
✕ NO Catering
RSA - Rake Sharing
Rake/Coach Composition
ENG-SLR-GEN-GEN-GEN-GEN-GEN-GEN-GEN-SLR
Loco
WDM-2/WDM-3A from MFP to BJU, then, ASN WAM-4/WAG-5A/WAG-5HA from BJU...
Read more...
to SDAH
News    PNR    Forum    Time-Table    Availability    Fare Chart    Map    Arr/Dep History    Trips    Gallery    ΣChains    X/O    Timeline    
Travel Time: 5h 10m    16 halts    Distance: 213 km    Avg Speed: 41 km/hr
Type: Passenger
Zone: ER/Eastern
Departs @ 21:30 (Avg 1h 24m late)
Platform# ???
SMTWTFS
Asansol Junction/ASN 
Arrives @ 02:40 +1 night (Avg 1h 46m late)
Platform# ???
SMTWTFS
Dum Dum Junction/DDJ 

16 halts. 53 intermediate Stations between Asansol Junction and Dum Dum Junction

Show ALL intermediate Stations  Show Old Time-Table

#CodeStation NameX/OArrivesAvgDepartsAvgHaltPFDay#KmSpeedElevZoneAddress
1MFPMuzaffarpur Junction (6)  -07:45 07:40+8--1-356.52957mECRMuzaffarpur, Bihar
2NRPANarayanpur Anant (3)X  07:54 07:50+1807:55 07:52+181 2m--1-351.74356mECRMuzaffarpur, Bihar
3SLTSilaut (2)  08:03 08:00+2008:04 08:02+221 2m--1-346.05857mECRMuzaffarpur, Bihar
4SIHOSiho (2)  08:12 08:10+2408:13 08:12+261 2m--1-338.25153mECRNational Highway 28, Bihar
5DOLDholi (2)X  08:21 08:20+2508:22+261 2m--1-331.445 ECRDistt. Muzaffarpur, Bihar
6DUBHDubaha (2)X  08:31 08:30+2808:32+331 2m--1-325.34055mECRDubha Station, Bihar
7KRBPKhudiram B Pusa (2)  08:41 08:43+3508:42 08:45+381 2m--1-318.04452mECRDistt. Samastipur, Bihar
8KPGMKarpurigram (3)X  08:51 08:55+4608:52 08:57+501 2m--1-310.62951mECRState Highway 49, Bihar
9SPJSamastipur Junction (9)X  09:10+4809:20+4810m--1-304.44955mECRSamastipur, Bihar
10UJPUjiarpur (2)X  09:31+1:0409:32+1:061m--1-295.34751mECRSamastipur, Bihar
11NAZJNazirGanj (2)  09:40+1:0809:41+1:151m--1-289.04751mECRNazirGanj, Bihar
12DSSDalsingh Sarai (2)X  09:51+1:1709:52+1:251m21-281.227 ECR06278-221238, Bihar
13STJTSathajagat (2)X  10:02+1:2410:03+1:341m--1-276.62449mECRSathajagat, Bihar
14BCABachwara Junction (3)X  10:19+1:3010:20 10:25+1:461 6m--1-270.23149mECRBegusarai, Bihar
15TGATeghra (3)X  10:42+1:3910:43+1:491m--1-261.31048mECRBegusarai, Bihar
16BJUBarauni Junction (9)11:25+1:2611:50+1:4725m--1-253.92449mECRBegusarai, Bihar
17DKGSDinkar Gram Simaria (3) new halt!!  12:05+2:0412:07+2:112m--1-247.92547mECRSimaria Station, Bihar
18RJORajendra Pul (1)  12:14+2:4312:15+2:561m11-245.02849mECRSimaria, Bihar
19HTZUHathidah Upper (1)  12:22+3:0112:24+2:552m11-241.71451mECRMurarpur, Bihar
20RDUMRampur Dumra (3)  13:14+2:2413:15+2:301m--1-229.93746mECRNational Highway 80, Bihar
21BRYABarhiya (3)  13:24+2:0313:25+2:051m--1-224.32047mECRBarahiya, Bihar
22MKBMankathaX  13:53+2:1513:55+2:162m--1-214.93347mECRNational Highway 80, Bihar
23LKRLuckeesarai Junction (2)X  14:05+2:0614:07+2:072m--1-209.3652mECRLakhisarai, Bihar
24KIULKiul Junction (5)X  14:20+1:4614:30+1:4510m--1-207.93353mECRDist. Lakhisarai, Bihar
25BSQPBansipur (2)  14:38+2:1214:40+2:122m--1-203.51753mECRKiul, Bihar
26MNPMananpur (2)  14:49+2:1614:50+2:191m--1-201.05457mECRState Highway 18, Bihar
27BFMBhalui (2)  14:57+2:2114:58+2:221m--1-194.87763mECRState Highway 18, Bihar
28JMUJamui (2)  15:09+2:2715:10+2:291m--1-180.64881mECRState Highway 72, Bihar
29CUXChaura (2)X  15:20+2:3015:21+2:311m--1-172.64490mECRState Highway 18, Bihar
30GHRGidhaur (2)  15:30+2:2915:31+2:311m--1-166.137106mECRState Highway 18, Bihar
31DPXDadpur (2)X  15:38+2:3015:39+2:321m--1-161.820116mECRDadpur, Bihar
32JAJJhajha (4)  16:00+2:0016:10+2:0110m--1-154.644143mECRJhajha, Bihar
33NRGONarganjo Halt (2)X  16:21+2:2616:22+2:261m--1-146.629188mERState Highway 18, Bihar
34STLSimultala (2)X  16:44+1:5816:45+2:001m--1-135.947247mERSimultala, Bihar
35LHBLahabon (3)X  16:58+2:1916:59+2:191m--1-125.846259mERDeoghar, Jharkhand
36JSMEJasidih Junction (5)X  17:19+1:5217:22+1:533m--1-110.555271mERJasidih, Jharkhand
37KBQKumrabad Rohini (2)X  17:29-17:30-1m--1-104.173231mERKumrabad Rohi, Jharkhand
38SNQSankarpur (2)X  17:34+2:3217:35+2:321m--1-99.341242mERDeoghar, Jharkhand
39MUWMathurapur (2)  17:44+2:3317:45+2:331m--1-93.144261mERDeoghar, Jharkhand
40MDPMadhupur Junction (4)XO  18:01+1:4018:58+1:1357m--1-81.559254mER06432-224478, Jharkhand
41JRWJoramow  19:08+1:4519:09+1:451m--1-71.646208mERBarrage on Ajoy River, Jharkhand
42MNCMadankata (2)X  19:16+1:4319:17+1:431m--1-66.244208mERBarrage on Ajoy River, Jharkhand
43VDSVidyasagar (2)X  19:29+1:3719:30+1:391m--1-57.363250mERJamtara, Jharkhand
44JMTJamtara (2)  19:47+1:3619:48+1:371m21-39.445201mERJamtara, Jharkhand
45CRJChittaranjan (3)X  20:07+1:3820:10+1:433m21-25.146182mERMihijam, Jharkhand
46RNPRRupnarayanpur (3)X  20:16+1:5020:17+1:501m--1-20.553191mERChittaranjan, West Bengal
47SLSSalanpur (2)X  20:25+1:5320:26+1:541m--1-13.410156mERSalanpur Station, West Bengal
48STNSitarampur Junction (5)X  20:58 20:53+1:3121:00 20:55+1:382m--1-8.832139mERG T Rd Before Asansol, West Bengal
49BCQBarachak Junction (4)X  21:06 21:02+1:4921:07 21:03+1:501m--1-5.144127mERdist - bardhaman, West Bengal
50ASNAsansol Junction (7)»X  21:15 21:10+1:2521:35 21:30+1:2420m--10.064113mERDist - Bardhaman, West Bengal
51RNGRaniGanj (4)XO  21:52 21:47+1:3521:56 21:51+1:434m--118.11192mERRaniganj, West Bengal
52UDLAndal Junction (6)  22:30+1:2722:33+1:263m--125.46286mERAndal, West Bengal
53OYRWaria (4)X  22:41+1:4522:42+1:451m--133.641 ERDurgapur, West Bengal
54DGRDurgapur (5)X  22:55+1:2323:00+1:225m--142.55571mERDurgapur, West Bengal
55PANPanagarh (4)  23:17+1:4423:18+1:441m--158.06570mERKaksa, West Bengal
56KANKhana Junction (5)X  23:50+1:3323:51+1:331m--192.96542mERDist - Bardhaman, West Bengal
57BWNBarddhaman Junction (8)X  00:03+1:3300:08+1:375m--2106.07034mERDist - Barddhaman, West Bengal
58BDCBandel Junction (7)  01:06+1:5401:11+1:535m--2173.23314mERdist - HOOGHLY, West Bengal
59HYGHooghly Ghat (2)  01:18+1:5801:19+1:581m--2177.01417mERdist - Hooghly, West Bengal
60GFAEGarifa (2)  01:25-01:26-1m--2178.51915mERState Highway 1, West Bengal
61NHNaihati Junction (5)  01:36+1:5601:44+1:578m--2181.63415mERdist - North 24 paraganas - 743165, West Bengal
62KNRKankinara (3)  01:49+3:0601:51+5:022m--2184.457 ERState Highway 1, West Bengal
63SNRShyamnagar (4)  01:56+1:1801:57+1:181m--2189.24916mERDist - North 24 paraganas, West Bengal
64IPIchhapur (4)  02:01+1:1602:02+1:161m--2192.54412mERIchapur, West Bengal
65BPBarrackpore (5)  02:08+2:0902:16+2:258m22196.93212mERDist - 24 paraganas (N), West Bengal
66TGHTitagarh (4)  02:20+1:1102:22+1:102m42199.04510mERDist - 24 paraganas ( north ), West Bengal
67DDJDum Dum Junction (5)•  02:40+1:4602:41+1:461m--2212.6910mERKolkata - 700028, West Bengal
68SDAHKolkata Sealdah (20)  03:25+1:09-72219.2-8mERPh : 033-23503535 (For North: APC Roy Road) Kolkata 700014, West Bengal
Scroll to Top
Scroll to Bottom